Time;durP1;ratioP1;P1;durP2;ratioP2;P2;SDS_P1;SDS_P2;PMS_P1;PMS_P2;Temp;Humidity;BMP_temperature;BMP_pressure;BME280_temperature;BME280_humidity;BME280_pressure;Samples;Min_cycle;Max_cycle;Signal;HPM_P1;HPM_P2
2020/12/07 00:02:03;;;;;;;;;;;8.10;99.90;;;;;;5114302;28;20376;-71
2020/12/07 00:04:29;;;;;;;;;;;8.00;99.90;;;;;;5114455;28;20403;-71
2020/12/07 00:06:55;;;;;;;;;;;8.00;99.90;;;;;;5114525;28;19923;-71
2020/12/07 00:09:21;;;;;;;;;;;8.00;99.90;;;;;;5102484;28;19924;-71
2020/12/07 00:11:47;;;;;;;;;;;8.10;99.90;;;;;;5093756;28;20384;-71
2020/12/07 00:14:13;;;;;;;;;;;8.00;99.90;;;;;;5094090;28;19923;-71
2020/12/07 00:16:43;;;;;;;;;;;8.00;99.90;;;;;;5094141;28;19993;-72
2020/12/07 00:19:09;;;;;;;;;;;8.00;99.90;;;;;;5093907;28;19924;-72
2020/12/07 00:21:35;;;;;;;;;;;8.10;99.90;;;;;;5093559;28;20442;-71
2020/12/07 00:24:01;;;;;;;;;;;8.00;99.90;;;;;;5094093;28;19924;-73
2020/12/07 00:26:27;;;;;;;;;;;8.10;99.90;;;;;;5093884;28;20440;-72
2020/12/07 00:28:58;;;;;;;;;;;8.00;99.90;;;;;;5083397;28;19935;-70
2020/12/07 00:31:24;;;;;;;;;;;8.00;99.90;;;;;;5073341;28;19924;-70
2020/12/07 00:33:52;;;;;;;;;;;8.00;99.90;;;;;;5073503;28;19924;-70
2020/12/07 00:36:18;;;;;;;;;;;8.10;99.90;;;;;;5074039;28;19960;-70
2020/12/07 00:38:44;;;;;;;;;;;8.00;99.90;;;;;;5113742;28;20334;-70
2020/12/07 00:41:11;;;;;;;;;;;8.00;99.90;;;;;;5113956;28;19924;-70
2020/12/07 00:43:36;;;;;;;;;;;7.90;99.90;;;;;;5113683;28;19985;-70
2020/12/07 00:46:02;;;;;;;;;;;7.90;99.90;;;;;;5113375;28;20368;-70
2020/12/07 00:48:28;;;;;;;;;;;7.80;99.90;;;;;;5113139;28;19996;-70
2020/12/07 00:50:55;;;;;;;;;;;7.80;99.90;;;;;;5113303;28;20395;-70
2020/12/07 00:53:21;;;;;;;;;;;7.70;99.90;;;;;;5112988;28;19985;-70
2020/12/07 00:55:47;;;;;;;;;;;7.70;99.90;;;;;;5113724;28;20375;-69
2020/12/07 00:58:13;;;;;;;;;;;7.70;99.90;;;;;;5113358;28;19927;-70
2020/12/07 01:00:39;;;;;;;;;;;7.70;99.90;;;;;;5113471;28;19930;-70
2020/12/07 01:03:05;;;;;;;;;;;7.60;99.90;;;;;;5111722;28;20307;-70
2020/12/07 01:05:31;;;;;;;;;;;7.60;99.90;;;;;;5093176;28;19925;-70
2020/12/07 01:07:58;;;;;;;;;;;7.60;99.90;;;;;;5093032;28;19924;-70
2020/12/07 01:10:24;;;;;;;;;;;7.50;99.90;;;;;;5093132;28;19946;-70
2020/12/07 01:12:50;;;;;;;;;;;7.50;99.90;;;;;;5093012;28;19924;-70
2020/12/07 01:15:16;;;;;;;;;;;7.50;99.90;;;;;;5093114;28;20265;-70
2020/12/07 01:17:42;;;;;;;;;;;7.40;99.90;;;;;;5092965;28;19923;-70
2020/12/07 01:20:08;;;;;;;;;;;7.40;99.90;;;;;;5092962;28;20411;-70
2020/12/07 01:22:34;;;;;;;;;;;7.30;99.90;;;;;;5092663;28;19933;-70
2020/12/07 01:25:00;;;;;;;;;;;7.30;99.90;;;;;;5092813;28;19924;-70
2020/12/07 01:27:26;;;;;;;;;;;7.30;99.90;;;;;;5092982;28;19966;-70
2020/12/07 01:29:52;;;;;;;;;;;7.30;99.90;;;;;;5092752;28;19928;-70
2020/12/07 01:32:18;;;;;;;;;;;7.30;99.90;;;;;;5101252;28;19930;-69
2020/12/07 01:34:45;;;;;;;;;;;7.30;99.90;;;;;;5112789;28;20403;-70
2020/12/07 01:37:11;;;;;;;;;;;7.30;99.90;;;;;;5112900;28;20372;-69
2020/12/07 01:39:37;;;;;;;;;;;7.30;99.90;;;;;;5113108;28;19923;-70
2020/12/07 01:42:03;;;;;;;;;;;7.30;99.90;;;;;;5112752;28;19977;-70
2020/12/07 01:44:29;;;;;;;;;;;7.30;99.90;;;;;;5112898;28;20047;-70
2020/12/07 01:46:55;;;;;;;;;;;7.30;99.90;;;;;;5112374;28;19924;-69
2020/12/07 01:49:21;;;;;;;;;;;7.30;99.90;;;;;;5112425;28;19924;-69
2020/12/07 01:51:48;;;;;;;;;;;7.20;99.90;;;;;;5103085;28;20396;-69
2020/12/07 01:54:14;;;;;;;;;;;7.20;99.90;;;;;;5092385;28;19931;-69
2020/12/07 01:56:41;;;;;;;;;;;7.30;99.90;;;;;;5092334;28;19924;-70
2020/12/07 01:59:08;;;;;;;;;;;7.30;99.90;;;;;;5092377;28;20064;-70
2020/12/07 02:01:36;;;;;;;;;;;7.40;99.90;;;;;;5091802;28;20339;-70
2020/12/07 02:04:02;;;;;;;;;;;7.40;99.90;;;;;;5102871;28;19985;-69
2020/12/07 02:06:28;;;;;;;;;;;7.50;99.90;;;;;;5112605;28;19924;-70
2020/12/07 02:08:54;;;;;;;;;;;7.50;99.90;;;;;;5112530;28;20384;-69
2020/12/07 02:11:20;;;;;;;;;;;7.50;99.90;;;;;;5112435;28;19924;-69
2020/12/07 02:13:46;;;;;;;;;;;7.50;99.90;;;;;;5112429;28;19924;-70
2020/12/07 02:16:13;;;;;;;;;;;7.50;99.90;;;;;;5112549;28;19931;-70
2020/12/07 02:18:39;;;;;;;;;;;7.50;99.90;;;;;;5102197;28;19924;-70
2020/12/07 02:21:06;;;;;;;;;;;7.50;99.90;;;;;;5108998;28;20437;-70
2020/12/07 02:23:31;;;;;;;;;;;7.50;99.90;;;;;;5112446;28;19991;-70
2020/12/07 02:25:57;;;;;;;;;;;7.40;99.90;;;;;;5112351;28;19924;-70
2020/12/07 02:28:23;;;;;;;;;;;7.40;99.90;;;;;;5112530;28;19934;-70
2020/12/07 02:30:49;;;;;;;;;;;7.40;99.90;;;;;;5112333;28;19946;-70
2020/12/07 02:33:15;;;;;;;;;;;7.40;99.90;;;;;;5112080;28;19931;-70
2020/12/07 02:35:41;;;;;;;;;;;7.40;99.90;;;;;;5112340;28;20392;-70
2020/12/07 02:38:08;;;;;;;;;;;7.40;99.90;;;;;;5112475;28;19924;-70
2020/12/07 02:40:35;;;;;;;;;;;7.40;99.90;;;;;;5112132;28;19924;-70
2020/12/07 02:43:01;;;;;;;;;;;7.40;99.90;;;;;;5112033;28;20038;-70
2020/12/07 02:45:27;;;;;;;;;;;7.40;99.90;;;;;;5111517;28;20364;-70
2020/12/07 02:47:53;;;;;;;;;;;7.40;99.90;;;;;;5094269;28;19928;-70
2020/12/07 02:50:19;;;;;;;;;;;7.40;99.90;;;;;;5091968;28;20308;-70
2020/12/07 02:52:45;;;;;;;;;;;7.50;99.90;;;;;;5092915;28;19928;-70
2020/12/07 02:55:12;;;;;;;;;;;7.50;99.90;;;;;;5092164;28;19924;-70
2020/12/07 02:57:38;;;;;;;;;;;7.50;99.90;;;;;;5091732;28;19925;-70
2020/12/07 03:00:05;;;;;;;;;;;7.50;99.90;;;;;;5091948;28;19928;-70
2020/12/07 03:02:32;;;;;;;;;;;7.50;99.90;;;;;;5094703;28;20018;-71
2020/12/07 03:04:58;;;;;;;;;;;7.50;99.90;;;;;;5095452;28;19975;-69
2020/12/07 03:07:24;;;;;;;;;;;7.50;99.90;;;;;;5095368;28;20399;-69
2020/12/07 03:09:50;;;;;;;;;;;7.40;99.90;;;;;;5095261;28;19924;-69
2020/12/07 03:12:16;;;;;;;;;;;7.40;99.90;;;;;;5094896;28;19931;-69
2020/12/07 03:14:42;;;;;;;;;;;7.40;99.90;;;;;;5100514;28;19977;-69
2020/12/07 03:17:08;;;;;;;;;;;7.40;99.90;;;;;;5115757;28;19924;-69
2020/12/07 03:19:34;;;;;;;;;;;7.40;99.90;;;;;;5115688;28;19946;-69
2020/12/07 03:22:00;;;;;;;;;;;7.40;99.90;;;;;;5113274;28;19931;-69
2020/12/07 03:24:26;;;;;;;;;;;7.40;99.90;;;;;;5115372;28;19923;-69
2020/12/07 03:26:52;;;;;;;;;;;7.40;99.90;;;;;;5114941;28;19927;-69
2020/12/07 03:29:19;;;;;;;;;;;7.40;99.90;;;;;;5115600;28;20384;-69
2020/12/07 03:31:45;;;;;;;;;;;7.50;99.90;;;;;;5114592;28;20372;-70
2020/12/07 03:34:12;;;;;;;;;;;7.50;99.90;;;;;;5115350;28;19981;-70
2020/12/07 03:36:39;;;;;;;;;;;7.50;99.90;;;;;;5115257;28;19923;-69
2020/12/07 03:39:05;;;;;;;;;;;7.50;99.90;;;;;;5115291;28;19969;-70
2020/12/07 03:41:31;;;;;;;;;;;7.60;99.90;;;;;;5114770;28;19924;-70
2020/12/07 03:43:57;;;;;;;;;;;7.50;99.90;;;;;;5114829;28;19924;-70
2020/12/07 03:46:24;;;;;;;;;;;7.50;99.90;;;;;;5101332;28;20400;-69
2020/12/07 03:48:50;;;;;;;;;;;7.50;99.90;;;;;;5093527;28;19928;-70
2020/12/07 03:51:16;;;;;;;;;;;7.50;99.90;;;;;;5094314;28;19936;-70
2020/12/07 03:53:43;;;;;;;;;;;7.50;99.90;;;;;;5094297;28;19928;-69
2020/12/07 03:56:09;;;;;;;;;;;7.50;99.90;;;;;;5094373;28;19931;-69
2020/12/07 03:58:35;;;;;;;;;;;7.50;99.90;;;;;;5094539;28;19969;-69
2020/12/07 04:01:01;;;;;;;;;;;8.30;99.90;;;;;;5094276;28;19928;-69
2020/12/07 04:03:29;;;;;;;;;;;7.50;99.90;;;;;;5093702;28;19924;-69
2020/12/07 04:05:59;;;;;;;;;;;7.50;99.90;;;;;;5094161;28;19924;-70
2020/12/07 04:08:25;;;;;;;;;;;7.40;99.90;;;;;;5094253;28;19930;-70
2020/12/07 04:10:51;;;;;;;;;;;7.50;99.90;;;;;;5094274;28;20281;-70
2020/12/07 04:13:17;;;;;;;;;;;7.50;99.90;;;;;;5097214;28;19930;-70
2020/12/07 04:15:43;;;;;;;;;;;7.40;99.90;;;;;;5114546;28;19942;-70
2020/12/07 04:18:09;;;;;;;;;;;7.40;99.90;;;;;;5114085;28;19930;-70
2020/12/07 04:20:36;;;;;;;;;;;7.40;99.90;;;;;;5114110;28;19946;-70
2020/12/07 04:23:02;;;;;;;;;;;7.50;99.90;;;;;;5113968;28;19927;-69
2020/12/07 04:25:28;;;;;;;;;;;7.40;99.90;;;;;;5114470;28;19928;-70
2020/12/07 04:27:54;;;;;;;;;;;7.40;99.90;;;;;;5114144;28;19951;-69
2020/12/07 04:30:20;;;;;;;;;;;7.30;99.90;;;;;;5114155;28;20388;-69
2020/12/07 04:32:46;;;;;;;;;;;7.30;99.90;;;;;;5113499;28;19924;-69
2020/12/07 04:35:12;;;;;;;;;;;7.30;99.90;;;;;;5113971;28;19931;-69
2020/12/07 04:37:38;;;;;;;;;;;7.20;99.90;;;;;;5113901;28;19930;-70
2020/12/07 04:40:05;;;;;;;;;;;7.20;99.90;;;;;;5113886;28;19932;-70
2020/12/07 04:42:31;;;;;;;;;;;7.20;99.90;;;;;;5102286;27;20375;-69
2020/12/07 04:44:58;;;;;;;;;;;7.20;99.90;;;;;;5093184;28;19931;-70
2020/12/07 04:47:24;;;;;;;;;;;7.20;99.90;;;;;;5093173;28;19932;-70
2020/12/07 04:49:52;;;;;;;;;;;7.10;99.90;;;;;;5092860;28;20343;-69
2020/12/07 04:52:18;;;;;;;;;;;7.10;99.90;;;;;;5092684;28;19949;-69
2020/12/07 04:54:46;;;;;;;;;;;7.10;99.90;;;;;;5104739;28;19989;-67
2020/12/07 04:57:14;;;;;;;;;;;7.00;99.90;;;;;;5113639;28;19953;-72
2020/12/07 04:59:41;;;;;;;;;;;7.00;99.90;;;;;;5113537;28;20240;-69
2020/12/07 05:02:07;;;;;;;;;;;7.00;99.90;;;;;;5113154;28;19969;-72
2020/12/07 05:04:34;;;;;;;;;;;6.90;99.90;;;;;;5113021;28;19969;-72
2020/12/07 05:07:01;;;;;;;;;;;6.90;99.90;;;;;;5113186;28;19923;-69
2020/12/07 05:09:27;;;;;;;;;;;6.90;99.90;;;;;;5099286;28;19924;-69
2020/12/07 05:11:54;;;;;;;;;;;6.80;99.90;;;;;;5092785;28;19928;-70
2020/12/07 05:14:21;;;;;;;;;;;6.80;99.90;;;;;;5092988;28;20053;-69
2020/12/07 05:16:47;;;;;;;;;;;6.80;99.90;;;;;;5093023;28;19924;-69
2020/12/07 05:19:13;;;;;;;;;;;6.80;99.90;;;;;;5092785;28;19928;-69
2020/12/07 05:21:39;;;;;;;;;;;6.70;99.90;;;;;;5092715;28;19977;-68
2020/12/07 05:24:06;;;;;;;;;;;6.70;99.90;;;;;;5092169;28;19931;-69
2020/12/07 05:26:33;;;;;;;;;;;6.60;99.90;;;;;;5094069;28;20286;-69
2020/12/07 05:29:05;;;;;;;;;;;6.60;99.90;;;;;;5092645;28;19924;-69
2020/12/07 05:31:32;;;;;;;;;;;6.50;99.90;;;;;;5092475;28;20296;-69
2020/12/07 05:33:59;;;;;;;;;;;6.50;99.90;;;;;;5092493;28;20381;-69
2020/12/07 05:36:25;;;;;;;;;;;6.40;99.90;;;;;;5107161;28;19928;-70
2020/12/07 05:38:51;;;;;;;;;;;6.40;99.90;;;;;;5113291;28;19953;-69
2020/12/07 05:41:17;;;;;;;;;;;6.30;99.90;;;;;;5112597;28;19924;-69
2020/12/07 05:43:43;;;;;;;;;;;6.40;99.90;;;;;;5112869;28;19924;-69
2020/12/07 05:46:10;;;;;;;;;;;6.30;99.90;;;;;;5112593;28;20464;-69
2020/12/07 05:48:36;;;;;;;;;;;6.20;99.90;;;;;;5112641;28;19924;-69
2020/12/07 05:51:03;;;;;;;;;;;6.20;99.90;;;;;;5098988;28;20001;-68
2020/12/07 05:53:33;;;;;;;;;;;6.20;99.90;;;;;;5098626;28;19924;-69
2020/12/07 05:56:01;;;;;;;;;;;6.20;99.90;;;;;;5112665;28;20450;-69
2020/12/07 05:58:29;;;;;;;;;;;6.20;99.90;;;;;;5112466;28;19936;-69
2020/12/07 06:00:56;;;;;;;;;;;6.20;99.90;;;;;;5112310;28;19928;-69
2020/12/07 06:03:23;;;;;;;;;;;6.20;99.90;;;;;;5112391;28;19931;-69
2020/12/07 06:05:49;;;;;;;;;;;6.10;99.90;;;;;;5112456;28;19978;-69
2020/12/07 06:08:16;;;;;;;;;;;6.10;99.90;;;;;;5112416;28;20295;-69
2020/12/07 06:10:43;;;;;;;;;;;6.20;99.90;;;;;;5112629;28;20341;-70
2020/12/07 06:13:13;;;;;;;;;;;6.20;99.90;;;;;;5111811;28;19969;-68
2020/12/07 06:15:43;;;;;;;;;;;6.20;99.90;;;;;;5112030;28;19928;-70
2020/12/07 06:18:20;;;;;;;;;;;6.20;99.90;;;;;;5108758;28;19970;-70
2020/12/07 06:20:47;;;;;;;;;;;6.20;99.90;;;;;;5091363;28;20442;-73
2020/12/07 06:23:17;;;;;;;;;;;6.10;99.90;;;;;;5091832;28;19974;-68
2020/12/07 06:25:43;;;;;;;;;;;6.20;99.90;;;;;;5092248;28;20347;-68
2020/12/07 06:28:09;;;;;;;;;;;6.20;99.90;;;;;;5091985;28;19924;-68
2020/12/07 06:30:36;;;;;;;;;;;6.20;99.90;;;;;;5092133;28;19924;-69
2020/12/07 06:33:04;;;;;;;;;;;6.30;99.90;;;;;;5091622;28;19959;-69
2020/12/07 06:35:30;;;;;;;;;;;6.30;99.90;;;;;;5093820;28;19924;-70
2020/12/07 06:38:01;;;;;;;;;;;6.20;99.90;;;;;;5096194;28;19924;-70
2020/12/07 06:40:29;;;;;;;;;;;6.20;99.90;;;;;;5095964;28;19954;-70
2020/12/07 06:42:55;;;;;;;;;;;6.20;99.90;;;;;;5097693;28;19931;-71
2020/12/07 06:45:22;;;;;;;;;;;6.20;99.90;;;;;;5116220;28;19923;-69
2020/12/07 06:47:51;;;;;;;;;;;6.20;99.90;;;;;;5101391;28;19924;-69
2020/12/07 06:50:20;;;;;;;;;;;6.20;99.90;;;;;;5096592;28;19924;-75
2020/12/07 06:52:47;;;;;;;;;;;6.20;99.90;;;;;;5095475;28;19924;-76
2020/12/07 06:55:15;;;;;;;;;;;6.20;99.90;;;;;;5095521;28;20026;-72
2020/12/07 06:57:42;;;;;;;;;;;6.20;99.90;;;;;;5095835;28;19924;-69
2020/12/07 07:00:11;;;;;;;;;;;6.20;99.90;;;;;;5095647;28;19931;-70
2020/12/07 07:02:37;;;;;;;;;;;6.20;99.90;;;;;;5095353;28;20292;-69
2020/12/07 07:05:03;;;;;;;;;;;6.20;99.90;;;;;;5096594;28;19925;-71
2020/12/07 07:07:30;;;;;;;;;;;6.10;99.90;;;;;;5095322;28;19969;-70
2020/12/07 07:09:56;;;;;;;;;;;6.10;99.90;;;;;;5079301;28;19978;-70
2020/12/07 07:12:23;;;;;;;;;;;6.10;99.90;;;;;;5074797;28;19928;-71
2020/12/07 07:14:52;;;;;;;;;;;6.10;99.90;;;;;;5075152;28;19925;-69
2020/12/07 07:17:19;;;;;;;;;;;6.10;99.90;;;;;;5074939;28;19925;-69
2020/12/07 07:19:45;;;;;;;;;;;6.10;99.90;;;;;;5102355;28;19932;-74
2020/12/07 07:22:11;;;;;;;;;;;6.10;99.90;;;;;;5109828;28;20342;-75
2020/12/07 07:24:45;;;;;;;;;;;6.10;99.90;;;;;;5094722;28;19924;-70
2020/12/07 07:29:57;;;;;;;;;;;6.10;99.90;;;;;;5094873;28;19935;-68
2020/12/07 07:32:23;;;;;;;;;;;6.10;99.90;;;;;;5094442;28;19969;-69
2020/12/07 07:34:49;;;;;;;;;;;6.10;99.90;;;;;;5113928;28;19923;-70
2020/12/07 07:37:16;;;;;;;;;;;6.10;99.90;;;;;;5111079;28;19928;-70
2020/12/07 07:39:42;;;;;;;;;;;6.10;99.90;;;;;;5106207;28;20400;-70
2020/12/07 07:42:11;;;;;;;;;;;6.10;99.90;;;;;;5095484;28;20277;-73
2020/12/07 07:44:38;;;;;;;;;;;6.10;99.90;;;;;;5094730;28;19925;-69
2020/12/07 07:47:09;;;;;;;;;;;6.10;99.90;;;;;;5093630;28;19928;-67
2020/12/07 07:50:00;;;;;;;;;;;6.10;99.90;;;;;;5094791;28;19928;-67
2020/12/07 08:13:01;;;;;;;;;;;6.30;99.90;;;;;;5093822;28;20289;-71
2020/12/07 08:18:10;;;;;;;;;;;6.30;99.90;;;;;;5111465;28;19998;-69
2020/12/07 08:20:48;;;;;;;;;;;6.30;99.90;;;;;;5098720;28;19924;-73
2020/12/07 08:23:14;;;;;;;;;;;6.30;99.90;;;;;;5093950;28;20190;-74
2020/12/07 08:25:40;;;;;;;;;;;6.40;99.90;;;;;;5094251;28;19931;-71
2020/12/07 08:28:15;;;;;;;;;;;6.40;99.90;;;;;;5093945;28;19931;-70
2020/12/07 08:30:41;;;;;;;;;;;6.40;99.90;;;;;;5094888;28;19970;-69
2020/12/07 08:33:09;;;;;;;;;;;6.50;99.90;;;;;;5093452;28;19924;-70
2020/12/07 08:35:37;;;;;;;;;;;6.50;99.90;;;;;;5099631;28;19923;-73
2020/12/07 08:38:03;;;;;;;;;;;6.50;99.90;;;;;;5114278;28;19924;-76
2020/12/07 08:40:29;;;;;;;;;;;6.50;99.90;;;;;;5113200;28;19923;-75
2020/12/07 08:42:55;;;;;;;;;;;6.50;99.90;;;;;;5114045;28;19924;-76
2020/12/07 08:45:21;;;;;;;;;;;6.50;99.90;;;;;;5113679;27;19946;-73
2020/12/07 08:47:47;;;;;;;;;;;6.50;99.90;;;;;;5112790;28;19923;-73
2020/12/07 08:50:13;;;;;;;;;;;6.60;99.90;;;;;;5113562;28;19947;-71
2020/12/07 08:52:40;;;;;;;;;;;6.60;99.90;;;;;;5110944;28;19977;-74
2020/12/07 08:55:06;;;;;;;;;;;6.60;99.90;;;;;;5093219;28;19954;-75
2020/12/07 08:57:33;;;;;;;;;;;6.70;99.90;;;;;;5092629;28;21202;-77
2020/12/07 08:59:59;;;;;;;;;;;6.70;99.90;;;;;;5092435;28;20379;-74
2020/12/07 09:02:25;;;;;;;;;;;6.70;99.90;;;;;;5092653;28;19924;-73
2020/12/07 09:04:51;;;;;;;;;;;6.80;99.90;;;;;;5093814;28;20309;-74
2020/12/07 09:07:17;;;;;;;;;;;6.80;99.90;;;;;;5113101;28;19924;-76
2020/12/07 09:09:44;;;;;;;;;;;6.70;99.90;;;;;;5113070;28;19931;-73
2020/12/07 09:12:10;;;;;;;;;;;6.70;99.90;;;;;;5112939;28;19924;-77
2020/12/07 09:14:36;;;;;;;;;;;6.70;99.90;;;;;;5109026;28;20276;-73
2020/12/07 09:17:02;;;;;;;;;;;6.80;99.90;;;;;;5107069;28;19923;-70
2020/12/07 09:19:28;;;;;;;;;;;6.70;99.90;;;;;;5112933;28;19927;-73
2020/12/07 09:21:53;;;;;;;;;;;6.70;99.90;;;;;;5098230;28;19931;-78
2020/12/07 09:24:19;;;;;;;;;;;6.70;99.90;;;;;;5092655;28;19947;-73
2020/12/07 09:26:46;;;;;;;;;;;6.80;99.90;;;;;;5098600;28;19924;-71
2020/12/07 09:29:12;;;;;;;;;;;6.70;99.90;;;;;;5112544;28;20384;-73
2020/12/07 09:31:38;;;;;;;;;;;6.90;99.90;;;;;;5107480;28;19931;-75
2020/12/07 09:34:04;;;;;;;;;;;6.80;99.90;;;;;;5093051;28;19928;-74
2020/12/07 09:36:30;;;;;;;;;;;6.80;99.90;;;;;;5096518;28;19923;-73
2020/12/07 09:38:56;;;;;;;;;;;6.70;99.90;;;;;;5111382;28;19924;-74
2020/12/07 09:41:22;;;;;;;;;;;6.80;99.90;;;;;;5108932;28;20400;-75
2020/12/07 09:43:49;;;;;;;;;;;6.80;99.90;;;;;;5106364;28;19947;-75
2020/12/07 09:46:15;;;;;;;;;;;6.80;99.90;;;;;;5112833;28;20372;-75
2020/12/07 09:48:41;;;;;;;;;;;6.70;99.90;;;;;;5112990;28;19931;-77
2020/12/07 09:51:11;;;;;;;;;;;6.70;99.90;;;;;;5114250;28;19923;-75
2020/12/07 09:53:37;;;;;;;;;;;6.70;99.90;;;;;;5112749;28;19932;-74
2020/12/07 09:56:03;;;;;;;;;;;6.70;99.90;;;;;;5112794;28;19974;-73
2020/12/07 09:58:29;;;;;;;;;;;6.80;99.90;;;;;;5112659;28;19924;-73
2020/12/07 10:00:56;;;;;;;;;;;6.80;99.90;;;;;;5106549;28;19930;-72
2020/12/07 10:03:22;;;;;;;;;;;6.70;99.90;;;;;;5091948;28;20388;-75
2020/12/07 10:05:48;;;;;;;;;;;6.70;99.90;;;;;;5105659;28;20356;-75
2020/12/07 10:08:14;;;;;;;;;;;6.80;99.90;;;;;;5112322;28;19928;-75
2020/12/07 10:10:42;;;;;;;;;;;6.80;99.90;;;;;;5102362;28;19989;-77
2020/12/07 10:13:08;;;;;;;;;;;6.80;99.90;;;;;;5096206;28;20358;-77
2020/12/07 10:15:34;;;;;;;;;;;6.90;99.90;;;;;;5096606;28;19928;-72
2020/12/07 10:18:01;;;;;;;;;;;6.90;99.90;;;;;;5112645;28;19930;-72
2020/12/07 10:20:27;;;;;;;;;;;7.00;99.90;;;;;;5116763;28;19924;-72
2020/12/07 10:22:53;;;;;;;;;;;7.10;99.90;;;;;;5116489;28;19928;-73
2020/12/07 10:25:19;;;;;;;;;;;7.10;99.90;;;;;;5116290;28;20324;-73
2020/12/07 10:27:45;;;;;;;;;;;7.20;99.90;;;;;;5110586;28;19924;-72
2020/12/07 10:30:11;;;;;;;;;;;7.20;99.90;;;;;;5096185;28;20403;-74
2020/12/07 10:32:37;;;;;;;;;;;7.20;99.90;;;;;;5095864;28;19924;-72
2020/12/07 10:35:04;;;;;;;;;;;7.20;99.90;;;;;;5096221;28;19924;-72
2020/12/07 10:37:30;;;;;;;;;;;7.20;99.90;;;;;;5096181;28;19974;-73
2020/12/07 10:39:56;;;;;;;;;;;7.30;99.90;;;;;;5110980;28;19924;-74
2020/12/07 10:42:22;;;;;;;;;;;7.20;99.90;;;;;;5095450;28;19932;-73
2020/12/07 10:44:47;;;;;;;;;;;7.30;99.90;;;;;;5095786;28;19924;-75
2020/12/07 10:47:14;;;;;;;;;;;7.30;99.90;;;;;;5106679;28;20376;-73
2020/12/07 10:49:40;;;;;;;;;;;7.30;99.90;;;;;;5115736;28;19923;-73
2020/12/07 10:52:06;;;;;;;;;;;7.30;99.90;;;;;;5104912;28;19939;-72
2020/12/07 10:54:32;;;;;;;;;;;7.40;99.90;;;;;;5109551;28;19984;-71
2020/12/07 10:56:58;;;;;;;;;;;7.40;99.90;;;;;;5115808;28;19924;-73
2020/12/07 10:59:24;;;;;;;;;;;7.40;99.90;;;;;;5116224;28;20294;-76
2020/12/07 11:01:52;;;;;;;;;;;7.40;99.90;;;;;;5115256;28;19931;-72
2020/12/07 11:04:18;;;;;;;;;;;7.40;99.90;;;;;;5112019;28;19924;-75
2020/12/07 11:06:47;;;;;;;;;;;7.40;99.90;;;;;;5103636;28;19930;-72
2020/12/07 11:09:16;;;;;;;;;;;7.40;99.90;;;;;;5115358;28;19973;-73
2020/12/07 11:11:43;;;;;;;;;;;7.40;99.90;;;;;;5094886;28;20334;-73
2020/12/07 11:14:09;;;;;;;;;;;7.40;99.90;;;;;;5095325;28;19928;-75
2020/12/07 11:16:35;;;;;;;;;;;7.40;99.90;;;;;;5098296;28;19930;-76
2020/12/07 11:19:01;;;;;;;;;;;7.40;99.90;;;;;;5095354;28;20284;-77
2020/12/07 11:21:27;;;;;;;;;;;7.40;99.90;;;;;;5094107;28;19924;-77
2020/12/07 11:23:53;;;;;;;;;;;7.40;99.90;;;;;;5094960;28;19924;-80
2020/12/07 11:26:20;;;;;;;;;;;7.40;99.90;;;;;;5094961;28;19927;-73
2020/12/07 11:28:46;;;;;;;;;;;7.40;99.90;;;;;;5095171;28;19928;-72
2020/12/07 11:31:13;;;;;;;;;;;7.40;99.90;;;;;;5095129;28;19924;-72
2020/12/07 11:33:39;;;;;;;;;;;7.40;99.90;;;;;;5112612;28;19977;-71
2020/12/07 11:36:05;;;;;;;;;;;7.40;99.90;;;;;;5114935;28;19928;-71
2020/12/07 11:38:34;;;;;;;;;;;7.40;99.90;;;;;;5099192;28;19924;-69
2020/12/07 11:43:48;;;;;;;;;;;7.40;99.90;;;;;;5092233;28;19920;-71
2020/12/07 11:46:18;;;;;;;;;;;7.40;99.90;;;;;;5094655;28;19989;-73
2020/12/07 11:48:44;;;;;;;;;;;7.50;99.90;;;;;;5094562;28;20015;-73
2020/12/07 11:51:10;;;;;;;;;;;7.50;99.90;;;;;;5094384;28;19932;-69
2020/12/07 11:53:36;;;;;;;;;;;7.40;99.90;;;;;;5094251;28;19985;-70
2020/12/07 11:56:02;;;;;;;;;;;7.50;99.90;;;;;;5102903;28;19924;-67
2020/12/07 11:58:28;;;;;;;;;;;7.50;99.90;;;;;;5094353;28;19947;-69
2020/12/07 12:00:54;;;;;;;;;;;7.60;99.90;;;;;;5094224;28;19924;-69
2020/12/07 12:03:20;;;;;;;;;;;7.60;99.90;;;;;;5094043;28;19928;-70
2020/12/07 12:05:46;;;;;;;;;;;11.20;99.90;;;;;;5094355;28;19931;-70
2020/12/07 12:08:12;;;;;;;;;;;7.60;99.90;;;;;;5104914;28;19924;-70
2020/12/07 12:10:38;;;;;;;;;;;7.60;99.90;;;;;;5112551;28;20296;-70
2020/12/07 12:13:04;;;;;;;;;;;7.60;99.90;;;;;;5111781;28;19930;-70
2020/12/07 12:15:30;;;;;;;;;;;7.60;99.90;;;;;;5094113;28;19924;-70
2020/12/07 12:17:57;;;;;;;;;;;7.60;99.90;;;;;;5094093;28;20315;-70
2020/12/07 12:20:23;;;;;;;;;;;7.70;99.90;;;;;;5093944;28;19985;-70
2020/12/07 12:22:49;;;;;;;;;;;;;;;;;;5110353;28;19923;-70
2020/12/07 12:25:15;;;;;;;;;;;7.60;99.90;;;;;;5114391;28;19927;-70
2020/12/07 12:27:42;;;;;;;;;;;;;;;;;;5113536;28;19945;-70
2020/12/07 12:30:08;;;;;;;;;;;7.70;99.90;;;;;;5114254;28;19923;-70
2020/12/07 12:32:34;;;;;;;;;;;7.70;99.90;;;;;;5113226;28;19923;-70
2020/12/07 12:35:01;;;;;;;;;;;7.80;99.90;;;;;;5113950;28;19927;-70
2020/12/07 12:37:27;;;;;;;;;;;7.70;99.90;;;;;;5112865;28;19978;-70
2020/12/07 12:39:53;;;;;;;;;;;7.70;99.90;;;;;;5113039;28;19931;-70
2020/12/07 12:42:18;;;;;;;;;;;7.80;99.90;;;;;;5102923;28;20289;-70
2020/12/07 12:44:44;;;;;;;;;;;7.70;99.90;;;;;;5113307;28;19924;-71
2020/12/07 12:47:10;;;;;;;;;;;7.70;99.90;;;;;;5113440;28;20312;-70
2020/12/07 12:49:36;;;;;;;;;;;7.70;99.90;;;;;;5113777;28;19924;-70
2020/12/07 12:52:03;;;;;;;;;;;7.70;99.90;;;;;;5113372;28;20398;-70
2020/12/07 12:54:29;;;;;;;;;;;7.70;99.90;;;;;;5113823;28;19928;-70
2020/12/07 12:56:55;;;;;;;;;;;7.60;99.90;;;;;;5113229;28;20373;-70
2020/12/07 12:59:21;;;;;;;;;;;7.60;99.90;;;;;;5095039;28;19928;-68
2020/12/07 13:01:47;;;;;;;;;;;7.60;99.90;;;;;;5092448;28;20396;-68
2020/12/07 13:04:13;;;;;;;;;;;7.60;99.90;;;;;;5093158;28;19931;-68
2020/12/07 13:06:39;;;;;;;;;;;7.50;99.90;;;;;;5093152;28;20497;-71
2020/12/07 13:09:06;;;;;;;;;;;7.50;99.90;;;;;;5092727;28;19935;-74
2020/12/07 13:11:34;;;;;;;;;;;7.50;99.90;;;;;;5109289;28;19965;-71
2020/12/07 13:14:01;;;;;;;;;;;7.40;99.90;;;;;;5113059;28;19931;-68
2020/12/07 13:16:33;;;;;;;;;;;7.40;99.90;;;;;;5113008;28;19924;-69
2020/12/07 13:18:59;;;;;;;;;;;7.40;99.90;;;;;;5113275;28;19927;-71
2020/12/07 13:21:29;;;;;;;;;;;7.30;99.90;;;;;;5098828;28;19981;-70
2020/12/07 13:24:00;;;;;;;;;;;7.20;99.90;;;;;;5092491;28;20351;-71
2020/12/07 13:26:33;;;;;;;;;;;7.10;99.90;;;;;;5092768;28;19924;-68
2020/12/07 13:28:59;;;;;;;;;;;7.00;99.90;;;;;;5092628;28;20460;-68
2020/12/07 13:31:25;;;;;;;;;;;6.90;99.90;;;;;;5092456;28;19928;-68
2020/12/07 13:33:51;;;;;;;;;;;6.90;99.90;;;;;;5092704;28;20297;-73
2020/12/07 13:36:18;;;;;;;;;;;6.80;99.90;;;;;;5094648;28;19923;-70
2020/12/07 13:38:45;;;;;;;;;;;6.60;99.90;;;;;;5103165;28;19928;-71
2020/12/07 13:41:12;;;;;;;;;;;6.80;99.90;;;;;;5098091;28;19969;-69
2020/12/07 13:43:39;;;;;;;;;;;6.80;99.90;;;;;;5092092;28;19973;-69
2020/12/07 13:46:05;;;;;;;;;;;6.70;99.90;;;;;;5090755;28;19932;-69
2020/12/07 13:48:31;;;;;;;;;;;6.70;99.90;;;;;;5082548;28;19933;-69
2020/12/07 13:50:57;;;;;;;;;;;6.70;99.90;;;;;;5092455;28;19924;-69
2020/12/07 13:53:23;;;;;;;;;;;6.70;99.90;;;;;;5075989;28;20380;-69
2020/12/07 13:55:49;;;;;;;;;;;6.70;99.90;;;;;;5092415;28;19924;-69
2020/12/07 13:58:15;;;;;;;;;;;6.70;99.90;;;;;;5094667;28;20011;-70
2020/12/07 14:00:42;;;;;;;;;;;6.70;99.90;;;;;;5109116;28;19924;-72
2020/12/07 14:03:08;;;;;;;;;;;6.70;99.90;;;;;;5112337;28;20396;-72
2020/12/07 14:05:34;;;;;;;;;;;6.70;99.90;;;;;;5112477;28;19931;-74
2020/12/07 14:08:00;;;;;;;;;;;6.70;99.90;;;;;;5112572;28;19927;-73
2020/12/07 14:10:26;;;;;;;;;;;6.80;99.90;;;;;;5112125;28;19924;-71
2020/12/07 14:12:52;;;;;;;;;;;6.70;99.90;;;;;;5111936;28;19924;-70
2020/12/07 14:15:18;;;;;;;;;;;6.70;99.90;;;;;;5111958;28;19924;-71
2020/12/07 14:17:55;;;;;;;;;;;7.80;99.90;;;;;;5112164;28;19977;-69
2020/12/07 14:20:26;;;;;;;;;;;6.80;99.90;;;;;;5111792;28;19928;-71
2020/12/07 14:22:59;;;;;;;;;;;6.90;99.90;;;;;;5107827;28;19950;-70
2020/12/07 14:42:00;;;;;;;;;;;7.00;99.90;;;;;;5092636;28;20310;-67
2020/12/07 14:44:29;;;;;;;;;;;7.00;99.90;;;;;;5092135;28;19928;-67
2020/12/07 14:46:56;;;;;;;;;;;7.10;99.90;;;;;;5091891;28;20015;-68
2020/12/07 14:49:23;;;;;;;;;;;7.00;99.90;;;;;;5110592;28;19924;-71
2020/12/07 14:51:55;;;;;;;;;;;7.00;99.90;;;;;;5111662;28;19977;-72
2020/12/07 14:54:24;;;;;;;;;;;7.00;99.90;;;;;;5112037;28;20273;-71
2020/12/07 14:57:09;;;;;;;;;;;7.00;99.90;;;;;;5114367;28;19923;-70
2020/12/07 15:16:04;;;;;;;;;;;6.90;99.90;;;;;;5094825;28;19974;-71
2020/12/07 15:18:30;;;;;;;;;;;6.90;99.90;;;;;;5094735;28;19924;-71
2020/12/07 15:20:57;;;;;;;;;;;6.90;99.90;;;;;;5094472;28;19928;-71
2020/12/07 15:23:23;;;;;;;;;;;6.90;99.90;;;;;;5094349;28;19955;-71
2020/12/07 15:25:49;;;;;;;;;;;6.70;99.90;;;;;;5094803;28;19928;-70
2020/12/07 15:28:15;;;;;;;;;;;6.80;99.90;;;;;;5094523;28;19991;-70
2020/12/07 15:30:41;;;;;;;;;;;6.70;99.90;;;;;;5094895;28;19928;-70